Terminal Aerodrome Forecast
Issued by NWS

Home | Current Version | Previous Version | Text Only | Print | Product List | Glossary On
Versions: 1 2 3 4 5 6 7 8 9 10 11 12 13 14 15 16
000
FTUS44 KHGX 201134
TAFUTS
TAF
KUTS 201134Z 2012/2112 VRB04KT P6SM VCSH FEW040 OVC250
     FM201300 10006KT P6SM VCTS SCT040CB BKN120
      TEMPO 2013/2015 5SM -TSRA BR
     FM201800 13006KT P6SM VCSH SCT030 BKN040
     FM210100 12004KT P6SM FEW025 BKN035
     FM210900 VRB03KT 6SM BR MIFG BKN015=

USA.gov is the U.S. government's official web portal to all federal, state and local government web resources and services.